Time;durP1;ratioP1;P1;durP2;ratioP2;P2;SDS_P1;SDS_P2;PMS_P1;PMS_P2;Temp;Humidity;BMP_temperature;BMP_pressure;BME280_temperature;BME280_humidity;BME280_pressure;Samples;Min_cycle;Max_cycle;Signal;HPM_P1;HPM_P2
2023/04/19 00:01:22;;;;;;;39.15;22.70;;;9.60;99.90;;;;;;5073717;28;20020;-77
2023/04/19 00:03:47;;;;;;;36.70;21.98;;;9.60;99.90;;;;;;5075168;28;20035;-77
2023/04/19 00:06:13;;;;;;;37.42;22.70;;;9.60;99.90;;;;;;5075220;28;20020;-77
2023/04/19 00:08:40;;;;;;;33.40;21.58;;;9.60;99.90;;;;;;5075093;28;20064;-77
2023/04/19 00:11:06;;;;;;;37.67;23.08;;;9.50;99.90;;;;;;5073879;28;20021;-77
2023/04/19 00:13:32;;;;;;;36.45;22.45;;;9.50;99.90;;;;;;5074880;28;20078;-77
2023/04/19 00:15:57;;;;;;;36.05;21.10;;;9.50;99.90;;;;;;5073684;28;20523;-76
2023/04/19 00:18:23;;;;;;;36.17;21.90;;;9.50;99.90;;;;;;5074883;28;20409;-78
2023/04/19 00:20:48;;;;;;;36.67;22.75;;;9.50;99.90;;;;;;5074847;28;20017;-76
2023/04/19 00:23:14;;;;;;;35.50;21.95;;;9.40;99.90;;;;;;5073486;28;20111;-78
2023/04/19 00:25:40;;;;;;;42.47;24.02;;;9.30;99.90;;;;;;5073455;28;20066;-77
2023/04/19 00:28:05;;;;;;;38.95;24.88;;;9.20;99.90;;;;;;5074761;28;20012;-78
2023/04/19 00:30:31;;;;;;;38.22;21.58;;;9.20;99.90;;;;;;5074750;28;20017;-76
2023/04/19 00:32:57;;;;;;;34.72;22.13;;;9.10;99.90;;;;;;5074544;28;20079;-76
2023/04/19 00:35:22;;;;;;;38.45;21.73;;;9.10;99.90;;;;;;5073132;28;20044;-77
2023/04/19 00:37:48;;;;;;;37.50;23.83;;;9.00;99.90;;;;;;5073105;28;20393;-77
2023/04/19 00:40:14;;;;;;;38.17;23.48;;;9.00;99.90;;;;;;5074494;28;20017;-77
2023/04/19 00:42:39;;;;;;;36.63;22.63;;;8.90;99.90;;;;;;5073126;28;20099;-76
2023/04/19 00:45:05;;;;;;;36.45;22.20;;;8.90;99.90;;;;;;5073066;28;20093;-77
2023/04/19 00:47:31;;;;;;;37.55;22.77;;;8.90;99.90;;;;;;5074290;28;20492;-76
2023/04/19 00:49:57;;;;;;;33.67;21.10;;;8.80;99.90;;;;;;5073063;28;20072;-77
2023/04/19 00:52:23;;;;;;;33.83;21.50;;;8.80;99.90;;;;;;5074264;28;20033;-76
2023/04/19 00:54:49;;;;;;;35.03;21.85;;;8.70;99.90;;;;;;5072873;28;20077;-77
2023/04/19 00:57:15;;;;;;;30.13;19.73;;;8.70;99.90;;;;;;5074242;28;20032;-76
2023/04/19 00:59:41;;;;;;;32.58;19.50;;;8.70;99.90;;;;;;5072860;28;20016;-76
2023/04/19 01:02:08;;;;;;;30.13;20.20;;;8.70;99.90;;;;;;5074187;28;20036;-76
2023/04/19 01:04:34;;;;;;;31.20;19.88;;;8.60;99.90;;;;;;5072275;28;20481;-77
2023/04/19 01:07:00;;;;;;;31.13;20.05;;;8.60;99.90;;;;;;5073794;28;20021;-77
2023/04/19 01:09:26;;;;;;;30.08;18.52;;;8.60;99.90;;;;;;5073920;28;20480;-76
2023/04/19 01:11:52;;;;;;;31.38;18.23;;;8.60;99.90;;;;;;5072976;28;20031;-77
2023/04/19 01:14:18;;;;;;;28.85;19.50;;;8.50;99.90;;;;;;5073886;28;20036;-77
2023/04/19 01:16:44;;;;;;;29.83;20.00;;;8.50;99.90;;;;;;5072387;28;20062;-76
2023/04/19 01:19:10;;;;;;;30.42;19.38;;;8.50;99.90;;;;;;5072412;28;20393;-76
2023/04/19 01:21:38;;;;;;;32.75;20.42;;;8.50;99.90;;;;;;5072338;28;20112;-77
2023/04/19 01:24:04;;;;;;;30.58;20.80;;;8.50;99.90;;;;;;5073862;28;20447;-76
2023/04/19 01:26:30;;;;;;;27.98;18.67;;;8.50;99.90;;;;;;5073764;28;20056;-76
2023/04/19 01:28:55;;;;;;;32.13;18.77;;;8.50;99.90;;;;;;5072411;28;20082;-77
2023/04/19 01:31:21;;;;;;;31.48;20.17;;;8.50;99.90;;;;;;5073549;28;20028;-76
2023/04/19 01:33:47;;;;;;;31.35;18.95;;;8.40;99.90;;;;;;5072249;28;20052;-76
2023/04/19 01:36:12;;;;;;;32.40;18.65;;;8.40;99.90;;;;;;5072364;28;20480;-77
2023/04/19 01:38:38;;;;;;;27.45;17.45;;;8.40;99.90;;;;;;5072241;28;20024;-78
2023/04/19 01:41:03;;;;;;;26.92;18.92;;;8.40;99.90;;;;;;5072183;28;20157;-78
2023/04/19 01:43:29;;;;;;;33.60;19.17;;;8.30;99.90;;;;;;5072182;28;20066;-76
2023/04/19 01:45:54;;;;;;;31.50;19.08;;;8.30;99.90;;;;;;5072167;28;20030;-78
2023/04/19 01:48:20;;;;;;;30.35;18.90;;;8.20;99.90;;;;;;5073391;28;20390;-76
2023/04/19 01:50:46;;;;;;;29.73;17.10;;;8.20;99.90;;;;;;5072040;28;20141;-76
2023/04/19 01:53:11;;;;;;;30.45;17.15;;;8.20;99.90;;;;;;5072182;28;20027;-77
2023/04/19 01:55:38;;;;;;;28.35;17.85;;;8.20;99.90;;;;;;5071988;28;20063;-76
2023/04/19 01:58:04;;;;;;;30.73;18.23;;;8.10;99.90;;;;;;5073364;28;20028;-76
2023/04/19 02:00:29;;;;;;;30.42;17.77;;;8.10;99.90;;;;;;5073344;28;20017;-77
2023/04/19 02:02:55;;;;;;;29.58;17.17;;;8.10;99.90;;;;;;5073283;28;20025;-77
2023/04/19 02:05:21;;;;;;;28.80;16.70;;;8.10;99.90;;;;;;5072285;28;20078;-78
2023/04/19 02:07:46;;;;;;;26.83;15.93;;;8.00;99.90;;;;;;5071707;28;20111;-77
2023/04/19 02:10:12;;;;;;;27.67;16.45;;;8.00;99.90;;;;;;5073228;28;20020;-76
2023/04/19 02:12:39;;;;;;;26.73;16.35;;;8.00;99.90;;;;;;5071845;28;20542;-77
2023/04/19 02:15:05;;;;;;;29.63;18.67;;;7.90;99.90;;;;;;5071854;28;20499;-77
2023/04/19 02:17:31;;;;;;;27.45;17.30;;;7.90;99.90;;;;;;5071801;28;20462;-77
2023/04/19 02:19:56;;;;;;;27.92;17.15;;;7.90;99.90;;;;;;5073149;28;20024;-78
2023/04/19 02:22:22;;;;;;;27.63;17.58;;;7.90;99.90;;;;;;5073404;28;20082;-77
2023/04/19 02:24:49;;;;;;;24.02;15.40;;;7.90;99.90;;;;;;5077078;28;20035;-77
2023/04/19 02:27:15;;;;;;;24.42;15.00;;;7.90;99.90;;;;;;5077133;28;20367;-76
2023/04/19 02:29:40;;;;;;;27.35;17.25;;;7.90;99.90;;;;;;5076865;28;20032;-78
2023/04/19 02:32:06;;;;;;;25.50;15.98;;;7.90;99.90;;;;;;5076586;28;20048;-78
2023/04/19 02:34:33;;;;;;;28.02;15.85;;;7.90;99.90;;;;;;5076792;28;20044;-78
2023/04/19 02:36:59;;;;;;;26.65;16.02;;;7.90;99.90;;;;;;5075488;28;20504;-78
2023/04/19 02:39:25;;;;;;;28.08;16.90;;;7.90;99.90;;;;;;5076786;28;20056;-78
2023/04/19 02:41:50;;;;;;;25.42;14.88;;;7.80;99.90;;;;;;5075437;28;20028;-77
2023/04/19 02:44:16;;;;;;;28.73;17.45;;;7.80;99.90;;;;;;5075625;28;20031;-77
2023/04/19 02:46:48;;;;;;;25.58;15.25;;;7.80;99.90;;;;;;5076624;28;20488;-77
2023/04/19 02:49:14;;;;;;;29.38;15.38;;;7.80;99.90;;;;;;5076895;28;20023;-77
2023/04/19 02:51:39;;;;;;;22.38;15.35;;;7.90;99.90;;;;;;5076515;28;20529;-76
2023/04/19 02:54:05;;;;;;;23.48;14.63;;;7.80;99.90;;;;;;5076620;28;20096;-77
2023/04/19 02:56:31;;;;;;;25.65;15.13;;;7.80;99.90;;;;;;5075153;28;20020;-77
2023/04/19 02:59:00;;;;;;;24.58;15.25;;;7.90;99.90;;;;;;5076369;28;20052;-77
2023/04/19 03:01:25;;;;;;;22.65;13.60;;;7.80;99.90;;;;;;5075121;28;20070;-76
2023/04/19 03:03:51;;;;;;;21.40;13.98;;;7.90;99.90;;;;;;5075155;28;20025;-77
2023/04/19 03:06:17;;;;;;;22.55;14.13;;;7.80;99.90;;;;;;5075065;28;20036;-77
2023/04/19 03:08:42;;;;;;;24.77;15.77;;;7.80;99.90;;;;;;5076187;28;20021;-76
2023/04/19 03:11:11;;;;;;;22.95;14.05;;;7.80;99.90;;;;;;5075012;28;20020;-76
2023/04/19 03:13:36;;;;;;;22.58;14.40;;;7.80;99.90;;;;;;5074702;28;20524;-76
2023/04/19 03:16:02;;;;;;;21.33;14.68;;;7.80;99.90;;;;;;5076103;28;20033;-77
2023/04/19 03:18:28;;;;;;;21.25;14.10;;;7.70;99.90;;;;;;5074761;28;20017;-76
2023/04/19 03:20:54;;;;;;;19.15;13.23;;;7.70;99.90;;;;;;5074769;28;20107;-77
2023/04/19 03:23:20;;;;;;;22.55;14.05;;;7.70;99.90;;;;;;5074648;28;20048;-76
2023/04/19 03:25:45;;;;;;;21.80;14.10;;;7.70;99.90;;;;;;5074595;28;20043;-76
2023/04/19 03:28:11;;;;;;;25.63;15.70;;;7.70;99.90;;;;;;5075902;28;20047;-77
2023/04/19 03:30:36;;;;;;;22.45;15.27;;;7.50;99.90;;;;;;5075860;28;20031;-77
2023/04/19 03:33:02;;;;;;;22.27;14.98;;;7.50;99.90;;;;;;5075662;28;20075;-78
2023/04/19 03:35:29;;;;;;;22.48;14.93;;;7.50;99.90;;;;;;5074606;28;20033;-77
2023/04/19 03:37:55;;;;;;;27.05;16.63;;;7.40;99.90;;;;;;5075677;28;20020;-76
2023/04/19 03:40:20;;;;;;;29.15;17.80;;;7.50;99.90;;;;;;5074483;28;20027;-76
2023/04/19 03:42:46;;;;;;;30.30;17.52;;;7.40;99.90;;;;;;5074292;28;20066;-77
2023/04/19 03:45:11;;;;;;;33.13;17.63;;;7.40;99.90;;;;;;5074338;28;20025;-76
2023/04/19 03:47:37;;;;;;;28.60;18.25;;;7.40;99.90;;;;;;5075608;28;20021;-76
2023/04/19 03:50:03;;;;;;;29.90;19.13;;;7.40;99.90;;;;;;5075543;28;20024;-77
2023/04/19 03:52:28;;;;;;;31.30;19.33;;;7.50;99.90;;;;;;5075465;28;20470;-77
2023/04/19 03:54:54;;;;;;;31.70;18.80;;;7.40;99.90;;;;;;5075282;28;20036;-77
2023/04/19 03:57:21;;;;;;;34.15;19.15;;;7.40;99.90;;;;;;5075370;28;20111;-77
2023/04/19 03:59:46;;;;;;;31.30;20.20;;;7.40;99.90;;;;;;5073946;28;20032;-77
2023/04/19 04:02:12;;;;;;;30.00;18.65;;;7.40;99.90;;;;;;5075199;28;20028;-76
2023/04/19 04:04:38;;;;;;;33.97;21.10;;;7.40;99.90;;;;;;5075178;28;20023;-77
2023/04/19 04:07:03;;;;;;;30.95;19.27;;;7.40;99.90;;;;;;5075217;28;20025;-76
2023/04/19 04:09:29;;;;;;;33.63;20.73;;;7.40;99.90;;;;;;5073819;28;20020;-76
2023/04/19 04:11:55;;;;;;;33.95;20.92;;;7.50;99.90;;;;;;5073799;28;20016;-76
2023/04/19 04:14:20;;;;;;;36.90;20.27;;;7.50;99.90;;;;;;5074893;28;20090;-77
2023/04/19 04:16:46;;;;;;;36.92;22.45;;;7.50;99.90;;;;;;5073471;28;20017;-76
2023/04/19 04:19:11;;;;;;;36.65;22.08;;;7.40;99.90;;;;;;5075074;28;20031;-77
2023/04/19 04:21:37;;;;;;;31.33;20.08;;;7.50;99.90;;;;;;5074733;28;20539;-76
2023/04/19 04:24:03;;;;;;;35.92;20.70;;;7.50;99.90;;;;;;5074881;28;20035;-76
2023/04/19 04:26:29;;;;;;;36.50;21.40;;;7.50;99.90;;;;;;5073363;28;20026;-76
2023/04/19 04:28:56;;;;;;;36.03;21.90;;;7.60;99.90;;;;;;5073536;28;20119;-77
2023/04/19 04:31:21;;;;;;;36.42;22.42;;;7.50;99.90;;;;;;5074812;28;20408;-77
2023/04/19 04:33:47;;;;;;;36.92;22.13;;;7.60;99.90;;;;;;5074552;28;20064;-77
2023/04/19 04:36:13;;;;;;;37.33;22.40;;;7.60;99.90;;;;;;5071011;28;20033;-76
2023/04/19 04:38:38;;;;;;;33.33;21.02;;;7.60;99.90;;;;;;5072664;28;20473;-77
2023/04/19 04:41:04;;;;;;;36.25;21.25;;;7.60;99.90;;;;;;5072895;28;20017;-77
2023/04/19 04:43:31;;;;;;;36.97;21.70;;;7.60;99.90;;;;;;5071414;28;20099;-77
2023/04/19 04:45:56;;;;;;;32.65;20.42;;;7.60;99.90;;;;;;5072614;28;20025;-77
2023/04/19 04:48:23;;;;;;;35.20;20.40;;;7.70;99.90;;;;;;5071436;28;20469;-77
2023/04/19 04:50:48;;;;;;;35.20;20.85;;;7.70;99.90;;;;;;5072575;28;20020;-77
2023/04/19 04:53:14;;;;;;;32.67;20.73;;;7.70;99.90;;;;;;5071276;28;20024;-77
2023/04/19 04:55:40;;;;;;;35.53;20.63;;;7.70;99.90;;;;;;5071000;28;20035;-77
2023/04/19 04:58:05;;;;;;;29.90;19.88;;;7.70;99.90;;;;;;5071311;28;20100;-77
2023/04/19 05:00:32;;;;;;;31.73;20.13;;;7.60;99.90;;;;;;5072436;28;20489;-76
2023/04/19 05:02:58;;;;;;;38.45;21.52;;;7.60;99.90;;;;;;5072566;28;20024;-78
2023/04/19 05:05:24;;;;;;;30.52;18.10;;;7.70;99.90;;;;;;5072786;28;20021;-77
2023/04/19 05:07:49;;;;;;;30.77;18.92;;;7.60;99.90;;;;;;5072232;28;20067;-77
2023/04/19 05:10:15;;;;;;;28.63;18.50;;;7.60;99.90;;;;;;5073890;28;20048;-77
2023/04/19 05:12:41;;;;;;;31.42;20.02;;;7.50;99.90;;;;;;5072776;28;20025;-78
2023/04/19 05:15:07;;;;;;;28.77;18.10;;;7.50;99.90;;;;;;5069539;28;20036;-76
2023/04/19 05:17:33;;;;;;;25.33;15.77;;;7.60;99.90;;;;;;5071932;28;20039;-76
2023/04/19 05:19:59;;;;;;;30.83;18.38;;;7.50;99.90;;;;;;5071427;28;20477;-78
2023/04/19 05:22:26;;;;;;;28.33;18.27;;;7.50;99.90;;;;;;5073750;28;20031;-76
2023/04/19 05:24:51;;;;;;;27.02;16.98;;;7.40;99.90;;;;;;5072374;28;20043;-76
2023/04/19 05:27:17;;;;;;;27.02;17.67;;;7.40;99.90;;;;;;5071525;28;20024;-77
2023/04/19 05:29:42;;;;;;;29.20;17.20;;;7.40;99.90;;;;;;5071432;28;20428;-76
2023/04/19 05:32:08;;;;;;;29.35;19.75;;;7.40;99.90;;;;;;5071622;28;20045;-76
2023/04/19 05:34:35;;;;;;;28.33;17.35;;;7.40;99.90;;;;;;5071671;28;20058;-76
2023/04/19 05:37:02;;;;;;;12.80;8.57;;;7.30;99.90;;;;;;5070394;28;20023;-77
2023/04/19 05:39:28;;;;;;;9.18;7.30;;;7.20;99.90;;;;;;5071646;28;20029;-76
2023/04/19 05:41:53;;;;;;;11.38;6.53;;;7.20;99.90;;;;;;5069069;28;20078;-77
2023/04/19 05:44:22;;;;;;;10.65;7.50;;;7.10;99.90;;;;;;5069797;28;20024;-77
2023/04/19 05:46:47;;;;;;;9.55;6.25;;;6.90;99.90;;;;;;5070489;28;20035;-76
2023/04/19 05:49:13;;;;;;;6.22;4.53;;;6.80;99.90;;;;;;5070131;28;20012;-76
2023/04/19 05:51:39;;;;;;;8.07;5.93;;;6.70;99.90;;;;;;5070505;28;20033;-77
2023/04/19 05:54:04;;;;;;;10.82;8.75;;;6.60;99.90;;;;;;5069756;28;20016;-77
2023/04/19 05:56:30;;;;;;;12.63;4.57;;;6.50;99.90;;;;;;5071571;28;20024;-76
2023/04/19 05:58:55;;;;;;;6.25;4.65;;;6.50;99.90;;;;;;5072427;28;20025;-77
2023/04/19 06:01:22;;;;;;;5.40;4.15;;;6.50;99.90;;;;;;5069501;28;20486;-76
2023/04/19 06:03:51;;;;;;;4.57;3.67;;;6.50;99.90;;;;;;5049131;28;20049;-76
2023/04/19 06:06:18;;;;;;;5.68;3.95;;;6.30;99.90;;;;;;5050784;28;20104;-76
2023/04/19 06:08:43;;;;;;;7.38;4.13;;;6.30;99.90;;;;;;5050617;28;20492;-77
2023/04/19 06:11:09;;;;;;;5.82;4.70;;;6.30;99.90;;;;;;5050312;28;20022;-77
2023/04/19 06:13:35;;;;;;;5.20;3.97;;;6.30;99.90;;;;;;5051101;28;20032;-76
2023/04/19 06:16:01;;;;;;;10.32;7.20;;;6.30;99.90;;;;;;5051730;28;20037;-76
2023/04/19 06:18:27;;;;;;;4.43;3.80;;;6.40;99.90;;;;;;5051287;28;20478;-76
2023/04/19 06:20:52;;;;;;;4.63;4.10;;;6.40;99.90;;;;;;5052736;28;20032;-76
2023/04/19 06:23:18;;;;;;;3.78;3.10;;;6.40;99.90;;;;;;5052512;28;20048;-77
2023/04/19 06:25:44;;;;;;;2.47;2.00;;;6.30;99.90;;;;;;5052434;28;20025;-77
2023/04/19 06:28:09;;;;;;;2.47;2.22;;;6.30;99.90;;;;;;5071818;28;20036;-77
2023/04/19 06:30:35;;;;;;;3.45;2.75;;;6.30;99.90;;;;;;5072007;28;20031;-77
2023/04/19 06:33:01;;;;;;;3.15;2.75;;;6.30;99.90;;;;;;5070655;28;20044;-77
2023/04/19 06:35:26;;;;;;;4.28;3.88;;;6.30;99.90;;;;;;5082749;28;20040;-78
2023/04/19 06:37:52;;;;;;;5.10;4.30;;;6.30;99.90;;;;;;5091017;28;20016;-77
2023/04/19 06:40:18;;;;;;;8.05;7.13;;;6.30;99.90;;;;;;5090822;28;20108;-77
2023/04/19 06:42:43;;;;;;;7.93;6.03;;;6.30;99.90;;;;;;5091376;28;20073;-77
2023/04/19 06:45:10;;;;;;;4.90;4.50;;;6.30;99.90;;;;;;5090638;28;20066;-77
2023/04/19 06:47:35;;;;;;;4.63;3.83;;;6.20;99.90;;;;;;5072131;28;20484;-77
2023/04/19 06:50:01;;;;;;;127.38;50.05;;;6.30;99.90;;;;;;5071198;28;20017;-78
2023/04/19 06:52:34;;;;;;;37.08;19.50;;;6.30;99.90;;;;;;5054342;28;20090;-77
2023/04/19 06:54:59;;;;;;;;;;;6.30;99.90;;;;;;5071518;28;20482;-76
2023/04/19 06:57:25;;;;;;;8.68;6.70;;;6.30;99.90;;;;;;5071445;28;19961;-76
2023/04/19 06:59:50;;;;;;;4.40;3.85;;;6.30;99.90;;;;;;5069118;28;20112;-77
2023/04/19 07:02:16;;;;;;;4.63;3.65;;;6.30;99.90;;;;;;5070595;28;20020;-75
2023/04/19 07:04:41;;;;;;;5.20;4.68;;;6.40;99.90;;;;;;5072181;28;20146;-77
2023/04/19 07:07:07;;;;;;;3.42;3.10;;;6.30;99.90;;;;;;5072197;28;20077;-77
2023/04/19 07:09:32;;;;;;;3.90;2.88;;;6.40;99.90;;;;;;5072794;28;20028;-77
2023/04/19 07:12:00;;;;;;;5.13;3.30;;;6.50;99.90;;;;;;5074237;28;20025;-76
2023/04/19 07:14:26;;;;;;;5.13;2.90;;;6.50;99.90;;;;;;5073646;28;20098;-76
2023/04/19 07:16:52;;;;;;;3.35;2.58;;;6.50;99.90;;;;;;5075212;28;20477;-75
2023/04/19 07:19:19;;;;;;;4.65;2.90;;;6.40;99.90;;;;;;5073490;28;20103;-75
2023/04/19 07:21:45;;;;;;;3.30;2.22;;;6.40;99.90;;;;;;5075192;28;20024;-75
2023/04/19 07:24:10;;;;;;;4.72;2.28;;;6.30;99.90;;;;;;5078208;28;20025;-75
2023/04/19 07:26:36;;;;;;;2.28;2.08;;;6.30;99.90;;;;;;5076182;28;20029;-76
2023/04/19 07:29:02;;;;;;;3.72;2.95;;;6.40;99.90;;;;;;5091190;28;20024;-75
2023/04/19 07:31:27;;;;;;;2.50;2.30;;;6.40;99.90;;;;;;5053827;28;20451;-75
2023/04/19 07:33:53;;;;;;;4.18;3.15;;;6.30;99.90;;;;;;5055106;28;20053;-75
2023/04/19 07:36:20;;;;;;;9.70;6.22;;;6.40;99.90;;;;;;5063210;28;20538;-75
2023/04/19 07:38:45;;;;;;;3.92;3.25;;;6.40;99.90;;;;;;5071948;28;20020;-76
2023/04/19 07:41:11;;;;;;;10.27;7.72;;;6.40;99.90;;;;;;5072934;28;20051;-75
2023/04/19 07:43:37;;;;;;;12.95;3.30;;;6.50;99.90;;;;;;5073042;28;20020;-76
2023/04/19 07:46:09;;;;;;;2.80;2.60;;;6.50;99.90;;;;;;5074302;28;20031;-75
2023/04/19 07:48:35;;;;;;;;;;;6.50;99.90;;;;;;5073347;28;20470;-76
2023/04/19 07:51:11;;;;;;;4.97;3.25;;;6.50;99.90;;;;;;5074387;28;19949;-75
2023/04/19 07:53:38;;;;;;;8.88;6.32;;;6.50;99.90;;;;;;5073756;28;20040;-76
2023/04/19 07:56:05;;;;;;;4.68;2.92;;;6.40;99.90;;;;;;5073709;28;20036;-76
2023/04/19 07:58:31;;;;;;;6.50;4.47;;;6.50;99.90;;;;;;5073579;28;20032;-76
2023/04/19 08:00:56;;;;;;;2.50;2.30;;;6.60;99.90;;;;;;5075006;28;20485;-76
2023/04/19 08:03:22;;;;;;;2.97;2.45;;;6.50;99.90;;;;;;5073532;28;20028;-76
2023/04/19 08:05:48;;;;;;;3.55;2.20;;;6.60;99.90;;;;;;5073521;28;20397;-76
2023/04/19 08:08:13;;;;;;;3.42;3.13;;;6.70;99.90;;;;;;5074485;28;20021;-75
2023/04/19 08:10:39;;;;;;;4.55;3.20;;;6.90;99.90;;;;;;5074699;28;20025;-76
2023/04/19 08:13:04;;;;;;;4.20;3.28;;;7.00;99.90;;;;;;5074586;28;20142;-75
2023/04/19 08:15:30;;;;;;;3.45;2.60;;;7.10;99.90;;;;;;5074589;28;20032;-75
2023/04/19 08:17:56;;;;;;;3.38;3.08;;;7.00;99.90;;;;;;5073290;28;20481;-75
2023/04/19 08:20:22;;;;;;;30.83;14.55;;;7.10;99.90;;;;;;5074168;28;20099;-75
2023/04/19 08:22:47;;;;;;;5.82;4.30;;;7.00;99.90;;;;;;5074554;28;20109;-75
2023/04/19 08:25:13;;;;;;;4.68;3.60;;;7.10;99.90;;;;;;5074396;28;20104;-75
2023/04/19 08:27:38;;;;;;;25.02;15.25;;;7.20;99.90;;;;;;5072977;28;20035;-76
2023/04/19 08:30:06;;;;;;;3.33;3.00;;;7.10;99.90;;;;;;5069402;28;20025;-76
2023/04/19 08:32:32;;;;;;;4.32;2.90;;;7.20;99.90;;;;;;5066081;28;20401;-75
2023/04/19 08:34:59;;;;;;;10.82;6.25;;;7.20;99.90;;;;;;5063351;28;20127;-75
2023/04/19 08:37:25;;;;;;;5.50;3.65;;;7.50;99.90;;;;;;5069563;28;20042;-75
2023/04/19 08:39:51;;;;;;;9.30;3.45;;;7.60;99.90;;;;;;5073048;28;20067;-76
2023/04/19 08:42:18;;;;;;;4.65;3.42;;;7.80;99.90;;;;;;5073258;28;20025;-75
2023/04/19 08:44:45;;;;;;;3.88;2.90;;;7.70;99.90;;;;;;5074080;28;20099;-75
2023/04/19 08:47:11;;;;;;;3.88;2.92;;;7.70;99.90;;;;;;5072595;28;20016;-75
2023/04/19 08:49:38;;;;;;;6.35;4.63;;;7.80;99.90;;;;;;5073920;28;20493;-75
2023/04/19 08:52:05;;;;;;;3.80;2.75;;;7.90;99.90;;;;;;5073892;28;20025;-75
2023/04/19 08:54:34;;;;;;;3.45;2.90;;;7.80;99.90;;;;;;5072476;28;20131;-75
2023/04/19 08:57:00;;;;;;;4.40;3.13;;;7.80;99.90;;;;;;5072459;28;20409;-75
2023/04/19 08:59:27;;;;;;;9.60;3.83;;;7.90;99.90;;;;;;5073786;28;20024;-75
2023/04/19 09:01:55;;;;;;;3.55;3.15;;;7.80;99.90;;;;;;5072420;28;20066;-75
2023/04/19 09:04:21;;;;;;;8.82;4.70;;;7.80;99.90;;;;;;5072421;28;20016;-75
2023/04/19 09:06:47;;;;;;;5.20;3.97;;;7.90;99.90;;;;;;5073533;28;20097;-75
2023/04/19 09:09:15;;;;;;;5.95;4.57;;;7.80;99.90;;;;;;5073460;28;20057;-75
2023/04/19 09:11:41;;;;;;;5.25;4.20;;;7.80;99.90;;;;;;5072134;28;20024;-75
2023/04/19 09:14:11;;;;;;;3.80;3.40;;;7.70;99.90;;;;;;5073488;28;20028;-75
2023/04/19 09:16:38;;;;;;;5.13;3.50;;;7.70;99.90;;;;;;5073500;28;20028;-75
2023/04/19 09:19:04;;;;;;;35.58;7.28;;;7.70;99.90;;;;;;5073392;28;20021;-75
2023/04/19 09:21:31;;;;;;;4.70;4.15;;;7.70;99.90;;;;;;5073381;28;20025;-75
2023/04/19 09:23:58;;;;;;;3.05;2.75;;;7.60;99.90;;;;;;5071973;28;20025;-75
2023/04/19 09:26:28;;;;;;;4.15;3.05;;;7.80;99.90;;;;;;5071966;28;20465;-75
2023/04/19 09:29:01;;;;;;;4.28;3.40;;;7.90;99.90;;;;;;5071877;28;20028;-75
2023/04/19 09:31:27;;;;;;;;;;;7.90;99.90;;;;;;5073633;28;20056;-75
2023/04/19 09:33:54;;;;;;;6.00;4.57;;;7.90;99.90;;;;;;5072310;28;19916;-75
2023/04/19 09:36:30;;;;;;;7.80;4.47;;;8.00;99.90;;;;;;5071902;28;20389;-75
2023/04/19 09:38:57;;;;;;;4.57;2.95;;;8.00;99.90;;;;;;5073188;28;20024;-76
2023/04/19 09:41:23;;;;;;;3.85;2.88;;;8.00;99.90;;;;;;5071119;28;20008;-75
2023/04/19 09:43:50;;;;;;;7.93;5.35;;;8.00;99.90;;;;;;5069697;28;20020;-76
2023/04/19 09:46:35;;;;;;;7.20;4.35;;;8.00;99.90;;;;;;5070293;28;20020;-75
2023/04/19 09:49:16;;;;;;;5.22;3.60;;;8.00;99.90;;;;;;5071454;28;20062;-75
2023/04/19 09:51:54;;;;;;;5.65;3.70;;;7.90;99.90;;;;;;5071510;28;20028;-76
2023/04/19 09:54:22;;;;;;;7.07;4.32;;;7.80;99.90;;;;;;5069214;28;20036;-76
2023/04/19 09:56:49;;;;;;;4.90;3.58;;;7.70;99.90;;;;;;5072880;28;20027;-76
2023/04/19 09:59:15;;;;;;;3.35;3.05;;;7.80;99.90;;;;;;5072211;28;20032;-76
2023/04/19 10:01:46;;;;;;;4.82;3.72;;;7.70;99.90;;;;;;5070503;28;20028;-76
2023/04/19 10:04:20;;;;;;;7.15;5.05;;;7.70;99.90;;;;;;5070122;28;20024;-76
2023/04/19 10:06:50;;;;;;;6.68;5.28;;;7.90;99.90;;;;;;5069710;28;20078;-77
2023/04/19 10:09:17;;;;;;;7.57;5.60;;;7.80;99.90;;;;;;5071452;28;20103;-76
2023/04/19 10:11:47;;;;;;;7.90;5.43;;;7.90;99.90;;;;;;5071271;28;20509;-76
2023/04/19 10:14:23;;;;;;;6.65;4.95;;;7.90;99.90;;;;;;5071223;28;20031;-77
2023/04/19 10:16:50;;;;;;;7.75;5.25;;;7.70;99.90;;;;;;5070289;28;20496;-77
2023/04/19 10:19:19;;;;;;;7.82;5.57;;;7.70;99.90;;;;;;5071334;28;20021;-77
2023/04/19 10:21:47;;;;;;;7.10;5.22;;;7.70;99.90;;;;;;5071055;28;20017;-76
2023/04/19 10:24:14;;;;;;;32.88;14.65;;;7.70;99.90;;;;;;5071425;28;20024;-76
2023/04/19 10:27:07;;;;;;;8.57;4.93;;;7.70;99.90;;;;;;5071138;28;20017;-77
2023/04/19 10:29:55;;;;;;;8.20;5.97;;;7.60;99.90;;;;;;5070161;28;20024;-76
2023/04/19 10:32:21;;;;;;;15.50;9.70;;;7.60;99.90;;;;;;5072455;28;20049;-76
2023/04/19 10:34:46;;;;;;;14.82;9.85;;;7.60;99.90;;;;;;5070271;28;20082;-77
2023/04/19 10:37:15;;;;;;;23.77;12.98;;;7.60;99.90;;;;;;5069558;28;20040;-76
2023/04/19 10:39:44;;;;;;;15.82;10.45;;;7.40;99.90;;;;;;5071665;28;20081;-76
2023/04/19 10:42:09;;;;;;;21.60;13.70;;;7.40;99.90;;;;;;5071688;28;20036;-76
2023/04/19 10:44:35;;;;;;;16.85;10.80;;;7.30;99.90;;;;;;5071312;28;20066;-76
2023/04/19 10:47:04;;;;;;;19.67;12.45;;;7.30;99.90;;;;;;5073102;28;20048;-75
2023/04/19 10:49:30;;;;;;;21.92;13.13;;;7.30;99.90;;;;;;5075486;28;20024;-76
2023/04/19 10:51:56;;;;;;;18.23;12.85;;;7.30;99.90;;;;;;5073521;28;20108;-77
2023/04/19 10:54:34;;;;;;;21.80;14.45;;;7.20;99.90;;;;;;5073131;28;20031;-76
2023/04/19 10:57:05;;;;;;;25.08;16.35;;;7.20;99.90;;;;;;5075293;28;20039;-76
2023/04/19 10:59:42;;;;;;;27.80;15.88;;;7.30;99.90;;;;;;5075310;28;20047;-76
2023/04/19 11:02:29;;;;;;;24.75;14.57;;;7.20;99.90;;;;;;5072547;28;20533;-76
2023/04/19 11:04:55;;;;;;;22.50;14.75;;;7.10;99.90;;;;;;5071812;28;20017;-76
2023/04/19 11:07:21;;;;;;;25.65;15.00;;;7.20;99.90;;;;;;5070938;28;20048;-76
2023/04/19 11:09:48;;;;;;;23.70;14.02;;;7.10;99.90;;;;;;5071570;28;20482;-76
2023/04/19 11:12:15;;;;;;;25.83;16.90;;;7.10;99.90;;;;;;5072352;28;20044;-77
2023/04/19 11:14:45;;;;;;;28.05;16.73;;;7.00;99.90;;;;;;5074643;28;20064;-76
2023/04/19 11:17:15;;;;;;;26.92;15.90;;;7.10;99.90;;;;;;5074010;28;20020;-77
2023/04/19 11:20:05;;;;;;;22.58;13.75;;;7.00;99.90;;;;;;5073615;28;20024;-76
2023/04/19 11:22:38;;;;;;;25.38;16.35;;;7.00;99.90;;;;;;5072007;28;20039;-76
2023/04/19 11:25:24;;;;;;;23.80;16.08;;;7.00;99.90;;;;;;5074082;28;20013;-76
2023/04/19 11:27:52;;;;;;;28.73;17.35;;;7.00;99.90;;;;;;5071666;28;20112;-76
2023/04/19 11:30:28;;;;;;;26.35;18.10;;;7.00;99.90;;;;;;5073352;28;20071;-76
2023/04/19 11:32:55;;;;;;;24.63;15.65;;;7.00;99.90;;;;;;5071443;28;20059;-76
2023/04/19 11:35:25;;;;;;;22.52;14.98;;;7.00;99.90;;;;;;5073395;28;20043;-76
2023/04/19 11:37:52;;;;;;;24.17;14.75;;;7.00;99.90;;;;;;5073676;28;20055;-77
2023/04/19 11:40:20;;;;;;;23.60;14.90;;;7.00;99.90;;;;;;5074698;28;20044;-76
2023/04/19 11:42:45;;;;;;;27.15;16.25;;;7.00;99.90;;;;;;5074285;28;20081;-75
2023/04/19 11:45:22;;;;;;;24.98;16.70;;;7.00;99.90;;;;;;5073306;28;20438;-76
2023/04/19 11:47:49;;;;;;;23.30;16.15;;;7.00;99.90;;;;;;5072809;28;20035;-76
2023/04/19 11:50:39;;;;;;;26.38;15.10;;;7.10;99.90;;;;;;5072202;28;20127;-76
2023/04/19 11:53:22;;;;;;;25.00;16.50;;;7.10;99.90;;;;;;5067947;28;20498;-76
2023/04/19 11:55:53;;;;;;;26.02;15.88;;;7.20;99.90;;;;;;5073298;28;20451;-76
2023/04/19 11:58:47;;;;;;;22.48;14.70;;;7.20;99.90;;;;;;5072729;28;20059;-77
2023/04/19 12:01:18;;;;;;;23.13;15.05;;;7.10;99.90;;;;;;5074241;28;20032;-76
2023/04/19 12:03:52;;;;;;;20.88;13.30;;;7.20;99.90;;;;;;5073207;28;20071;-75
2023/04/19 12:06:28;;;;;;;19.98;12.43;;;7.30;99.90;;;;;;5073738;28;20493;-76
2023/04/19 12:08:55;;;;;;;27.33;14.70;;;7.30;99.90;;;;;;5061403;28;20052;-75
2023/04/19 12:11:38;;;;;;;21.17;14.98;;;7.30;99.90;;;;;;5072716;28;20436;-75
2023/04/19 12:14:13;;;;;;;25.20;16.02;;;7.40;99.90;;;;;;5073927;28;20025;-76
2023/04/19 12:16:39;;;;;;;15.93;11.70;;;7.50;99.90;;;;;;5072358;28;20081;-76
2023/04/19 12:19:16;;;;;;;16.20;10.95;;;7.50;99.90;;;;;;5072956;28;20401;-75
2023/04/19 12:21:42;;;;;;;15.57;10.63;;;7.50;99.90;;;;;;5072820;28;20021;-75
2023/04/19 12:24:08;;;;;;;18.63;11.45;;;7.50;99.90;;;;;;5073525;28;20116;-75
2023/04/19 12:26:35;;;;;;;17.80;10.80;;;7.40;99.90;;;;;;5073591;28;20100;-76
2023/04/19 12:29:02;;;;;;;17.45;11.57;;;7.40;99.90;;;;;;5074127;28;20032;-76
2023/04/19 12:31:30;;;;;;;18.80;12.00;;;7.50;99.90;;;;;;5074182;28;20020;-76
2023/04/19 12:33:56;;;;;;;23.98;13.05;;;7.60;99.90;;;;;;5073572;28;20079;-76
2023/04/19 12:36:22;;;;;;;16.23;11.57;;;7.60;99.90;;;;;;5072939;28;20087;-75
2023/04/19 12:38:47;;;;;;;17.17;11.07;;;7.60;99.90;;;;;;5074123;28;20020;-76
2023/04/19 12:41:13;;;;;;;17.48;12.25;;;7.70;99.90;;;;;;5072796;28;20020;-76
2023/04/19 12:43:38;;;;;;;17.45;11.80;;;7.70;99.90;;;;;;5074033;28;20020;-75
2023/04/19 12:46:04;;;;;;;17.05;12.60;;;7.70;99.90;;;;;;5074163;28;20397;-76